Time;durP1;ratioP1;P1;durP2;ratioP2;P2;SDS_P1;SDS_P2;PMS_P1;PMS_P2;Temp;Humidity;BMP_temperature;BMP_pressure;BME280_temperature;BME280_humidity;BME280_pressure;Samples;Min_cycle;Max_cycle;Signal;HPM_P1;HPM_P2
2024/03/18 00:00:14;;;;;;;11.68;6.55;;;10.30;99.90;;;;;;5031125;28;20036;-52
2024/03/18 00:02:44;;;;;;;11.68;7.00;;;10.30;99.90;;;;;;5046393;28;20080;-53
2024/03/18 00:05:15;;;;;;;9.18;6.85;;;10.40;99.90;;;;;;5031637;28;20022;-51
2024/03/18 00:07:41;;;;;;;8.13;6.60;;;10.40;99.90;;;;;;5030986;28;20033;-50
2024/03/18 00:10:11;;;;;;;9.90;6.60;;;10.40;99.90;;;;;;5030939;28;20035;-53
2024/03/18 00:12:37;;;;;;;8.23;6.65;;;10.30;99.90;;;;;;5029833;28;20508;-51
2024/03/18 00:15:03;;;;;;;9.30;5.95;;;10.30;99.90;;;;;;5031155;28;20072;-53
2024/03/18 00:17:29;;;;;;;10.20;6.60;;;10.30;99.90;;;;;;5031230;28;20075;-48
2024/03/18 00:19:54;;;;;;;9.63;7.57;;;10.30;99.90;;;;;;5031028;28;20108;-49
2024/03/18 00:22:20;;;;;;;11.38;6.43;;;10.30;99.90;;;;;;5031295;28;20618;-51
2024/03/18 00:24:46;;;;;;;15.73;6.97;;;10.30;99.90;;;;;;5031376;28;20031;-48
2024/03/18 00:27:13;;;;;;;8.52;7.20;;;10.30;99.90;;;;;;5031267;28;20040;-48
2024/03/18 00:29:39;;;;;;;10.38;6.72;;;10.30;99.90;;;;;;5030880;28;20025;-51
2024/03/18 00:32:04;;;;;;;8.02;6.90;;;10.30;99.90;;;;;;5031162;28;20060;-48
2024/03/18 00:34:30;;;;;;;10.95;6.53;;;10.30;99.90;;;;;;5031210;28;20378;-47
2024/03/18 00:36:55;;;;;;;9.05;7.07;;;10.30;99.90;;;;;;5031017;28;20485;-50
2024/03/18 00:39:21;;;;;;;7.70;6.35;;;10.20;99.90;;;;;;5033754;28;20029;-50
2024/03/18 00:41:48;;;;;;;11.35;7.43;;;10.20;99.90;;;;;;5035119;28;20100;-50
2024/03/18 00:44:19;;;;;;;12.32;6.70;;;10.30;99.90;;;;;;5034775;28;20018;-51
2024/03/18 00:46:46;;;;;;;11.07;7.40;;;10.30;99.90;;;;;;5033439;28;20111;-52
2024/03/18 00:49:13;;;;;;;8.25;7.32;;;10.30;99.90;;;;;;5034834;28;20098;-50
2024/03/18 00:51:39;;;;;;;8.40;7.15;;;10.30;99.90;;;;;;5034618;28;20028;-51
2024/03/18 00:54:05;;;;;;;12.27;7.10;;;10.30;99.90;;;;;;5034855;28;20100;-51
2024/03/18 00:56:31;;;;;;;8.25;5.93;;;10.30;99.90;;;;;;5034678;28;20017;-51
2024/03/18 00:58:57;;;;;;;8.82;6.53;;;10.40;99.90;;;;;;5034618;28;20026;-53
2024/03/18 01:01:22;;;;;;;11.63;6.22;;;10.40;99.90;;;;;;5034775;28;20040;-50
2024/03/18 01:03:48;;;;;;;10.48;6.68;;;10.40;99.90;;;;;;5034611;28;20080;-48
2024/03/18 01:06:14;;;;;;;9.40;6.57;;;10.40;99.90;;;;;;5034543;28;20026;-51
2024/03/18 01:08:40;;;;;;;8.32;6.57;;;10.40;99.90;;;;;;5034401;28;20061;-51
2024/03/18 01:11:05;;;;;;;6.85;5.97;;;10.40;99.90;;;;;;5034080;28;20074;-51
2024/03/18 01:13:32;;;;;;;10.90;6.50;;;10.50;99.90;;;;;;5033082;28;20026;-51
2024/03/18 01:15:59;;;;;;;8.88;6.47;;;10.50;99.90;;;;;;5033160;28;20112;-50
2024/03/18 01:18:25;;;;;;;9.77;6.68;;;10.50;99.90;;;;;;5034416;28;20145;-51
2024/03/18 01:20:51;;;;;;;7.90;6.68;;;10.50;99.90;;;;;;5034722;28;20029;-52
2024/03/18 01:23:17;;;;;;;8.40;6.72;;;10.50;99.90;;;;;;5033134;28;20374;-49
2024/03/18 01:25:42;;;;;;;9.07;7.47;;;10.60;99.90;;;;;;5034186;28;20036;-50
2024/03/18 01:28:08;;;;;;;8.88;6.82;;;10.50;99.90;;;;;;5034142;28;20029;-48
2024/03/18 01:30:34;;;;;;;8.25;5.93;;;10.50;99.90;;;;;;5033989;28;20029;-50
2024/03/18 01:32:59;;;;;;;10.77;6.75;;;10.50;99.90;;;;;;5034032;28;20087;-52
2024/03/18 01:35:25;;;;;;;8.15;6.45;;;10.50;99.90;;;;;;5034121;28;20041;-49
2024/03/18 01:37:51;;;;;;;10.25;6.03;;;10.50;99.90;;;;;;5033981;28;20064;-48
2024/03/18 01:40:17;;;;;;;7.38;6.50;;;10.50;99.90;;;;;;5033550;28;20034;-50
2024/03/18 01:42:44;;;;;;;8.43;6.35;;;10.50;99.90;;;;;;5033900;28;20022;-54
2024/03/18 01:45:10;;;;;;;10.95;6.43;;;10.50;99.90;;;;;;5032681;28;20430;-50
2024/03/18 01:47:36;;;;;;;7.35;6.25;;;10.60;99.90;;;;;;5033471;28;20463;-52
2024/03/18 01:50:03;;;;;;;8.80;6.28;;;10.50;99.90;;;;;;5033080;28;20075;-52
2024/03/18 01:52:29;;;;;;;8.70;6.65;;;10.50;99.90;;;;;;5033647;28;20599;-54
2024/03/18 01:54:56;;;;;;;7.25;6.53;;;10.50;99.90;;;;;;5033774;28;20026;-50
2024/03/18 01:57:24;;;;;;;10.00;6.70;;;10.50;99.90;;;;;;5033608;28;20024;-48
2024/03/18 01:59:49;;;;;;;10.98;7.07;;;10.50;99.90;;;;;;5033462;28;20118;-51
2024/03/18 02:02:15;;;;;;;14.25;8.02;;;10.50;99.90;;;;;;5033546;28;20069;-49
2024/03/18 02:04:40;;;;;;;7.82;6.55;;;10.50;99.90;;;;;;5033391;28;20057;-49
2024/03/18 02:07:24;;;;;;;12.40;6.75;;;10.50;99.90;;;;;;5033415;28;20035;-48
2024/03/18 02:09:49;;;;;;;8.65;6.78;;;10.50;99.90;;;;;;5033128;28;20040;-48
2024/03/18 02:12:15;;;;;;;8.13;6.60;;;10.50;99.90;;;;;;5033139;28;20322;-50
2024/03/18 02:14:44;;;;;;;7.78;6.95;;;10.60;99.90;;;;;;5033298;28;20067;-52
2024/03/18 02:17:09;;;;;;;8.95;6.78;;;10.50;99.90;;;;;;5033209;28;20433;-51
2024/03/18 02:19:35;;;;;;;9.40;7.38;;;10.50;99.90;;;;;;5033100;28;20109;-52
2024/03/18 02:22:03;;;;;;;12.70;7.50;;;10.60;99.90;;;;;;5033229;28;20057;-47
2024/03/18 02:24:28;;;;;;;12.10;7.57;;;10.50;99.90;;;;;;5033317;28;20017;-52
2024/03/18 02:26:54;;;;;;;8.65;7.75;;;10.40;99.90;;;;;;5033036;28;20035;-51
2024/03/18 02:29:19;;;;;;;9.57;7.95;;;10.40;99.90;;;;;;5032822;28;20412;-51
2024/03/18 02:31:45;;;;;;;20.17;7.68;;;10.30;99.90;;;;;;5032910;28;20044;-50
2024/03/18 02:34:10;;;;;;;8.52;7.18;;;10.30;99.90;;;;;;5032903;28;20087;-51
2024/03/18 02:36:36;;;;;;;12.77;8.50;;;10.30;99.90;;;;;;5032781;28;20029;-49
2024/03/18 02:39:01;;;;;;;8.10;6.70;;;10.20;99.90;;;;;;5032670;28;20481;-48
2024/03/18 02:41:27;;;;;;;8.27;7.47;;;10.10;99.90;;;;;;5032761;28;20037;-48
2024/03/18 02:43:52;;;;;;;8.38;6.88;;;10.10;99.90;;;;;;5032750;28;20025;-48
2024/03/18 02:46:18;;;;;;;8.00;6.40;;;10.10;99.90;;;;;;5032401;28;20080;-51
2024/03/18 02:48:43;;;;;;;9.30;6.45;;;10.10;99.90;;;;;;5032659;28;20071;-50
2024/03/18 02:51:09;;;;;;;9.52;7.68;;;10.10;99.90;;;;;;5032520;28;20407;-53
2024/03/18 02:53:34;;;;;;;10.98;7.40;;;10.00;99.90;;;;;;5032494;28;20116;-53
2024/03/18 02:56:00;;;;;;;10.63;7.28;;;10.00;99.90;;;;;;5032553;28;20025;-48
2024/03/18 02:58:25;;;;;;;15.70;7.82;;;10.00;99.90;;;;;;5032299;28;20458;-50
2024/03/18 03:00:54;;;;;;;10.20;7.80;;;10.00;99.90;;;;;;5031374;28;20029;-50
2024/03/18 03:03:19;;;;;;;8.70;7.63;;;10.00;99.90;;;;;;5032417;28;20412;-45
2024/03/18 03:05:45;;;;;;;11.40;7.40;;;10.00;99.90;;;;;;5031087;28;20037;-54
2024/03/18 03:08:11;;;;;;;10.52;8.00;;;9.90;99.90;;;;;;5032132;28;20030;-52
2024/03/18 03:10:39;;;;;;;18.02;9.68;;;10.00;99.90;;;;;;5031844;28;20393;-54
2024/03/18 03:13:05;;;;;;;11.65;7.60;;;10.00;99.90;;;;;;5032046;28;20079;-53
2024/03/18 03:15:35;;;;;;;10.55;7.57;;;9.90;99.90;;;;;;5032267;28;20385;-49
2024/03/18 03:18:00;;;;;;;16.33;8.02;;;9.80;99.90;;;;;;5032123;28;20068;-50
2024/03/18 03:20:30;;;;;;;10.35;7.60;;;9.80;99.90;;;;;;5031859;28;20069;-48
2024/03/18 03:22:59;;;;;;;11.70;8.02;;;9.80;99.90;;;;;;5032045;28;20401;-54
2024/03/18 03:25:26;;;;;;;8.68;7.22;;;9.70;99.90;;;;;;5031994;28;20025;-50
2024/03/18 03:27:56;;;;;;;9.02;7.20;;;9.60;99.90;;;;;;5031841;28;20029;-51
2024/03/18 03:30:21;;;;;;;10.40;6.90;;;9.60;99.90;;;;;;5032080;28;20455;-48
2024/03/18 03:32:47;;;;;;;13.05;7.25;;;9.60;99.90;;;;;;5032001;28;20087;-48
2024/03/18 03:35:12;;;;;;;14.95;8.05;;;9.60;99.90;;;;;;5032115;28;20030;-52
2024/03/18 03:37:38;;;;;;;15.07;7.22;;;9.60;99.90;;;;;;5031872;28;20029;-51
2024/03/18 03:40:04;;;;;;;10.15;7.72;;;9.60;99.90;;;;;;5031515;28;20040;-50
2024/03/18 03:42:29;;;;;;;10.93;6.72;;;9.60;99.90;;;;;;5031747;28;20456;-51
2024/03/18 03:44:55;;;;;;;8.80;6.70;;;9.60;99.90;;;;;;5032196;28;20029;-50
2024/03/18 03:47:20;;;;;;;12.60;6.68;;;9.60;99.90;;;;;;5031305;28;20463;-52
2024/03/18 03:49:46;;;;;;;11.98;6.60;;;9.70;99.90;;;;;;5031622;28;20039;-52
2024/03/18 03:52:12;;;;;;;9.32;6.35;;;9.80;99.90;;;;;;5031515;28;20033;-52
2024/03/18 03:54:37;;;;;;;9.25;6.80;;;9.80;99.90;;;;;;5031652;28;20109;-52
2024/03/18 03:57:03;;;;;;;9.25;6.53;;;9.90;99.90;;;;;;5031759;28;20561;-52
2024/03/18 03:59:28;;;;;;;8.02;6.30;;;9.90;99.90;;;;;;5031447;28;20500;-49
2024/03/18 04:01:56;;;;;;;11.07;6.22;;;10.00;99.90;;;;;;5031826;28;20025;-47
2024/03/18 04:04:23;;;;;;;8.85;6.47;;;10.10;99.90;;;;;;5031374;28;20029;-51
2024/03/18 04:06:48;;;;;;;12.75;6.47;;;10.10;99.90;;;;;;5031288;28;20029;-51
2024/03/18 04:09:15;;;;;;;7.53;6.10;;;10.20;99.90;;;;;;5029948;28;20430;-51
2024/03/18 04:11:40;;;;;;;8.80;6.75;;;10.30;99.90;;;;;;5031133;28;20022;-49
2024/03/18 04:14:06;;;;;;;7.60;6.28;;;10.30;99.90;;;;;;5031321;28;20032;-49
2024/03/18 04:16:33;;;;;;;7.22;6.18;;;10.30;99.90;;;;;;5031328;28;20020;-51
2024/03/18 04:18:59;;;;;;;11.32;7.07;;;10.30;99.90;;;;;;5031499;28;20084;-49
2024/03/18 04:21:24;;;;;;;8.73;5.68;;;10.30;99.90;;;;;;5031240;28;20049;-54
2024/03/18 04:23:50;;;;;;;9.77;6.47;;;10.30;99.90;;;;;;5029983;28;20116;-48
2024/03/18 04:26:15;;;;;;;9.43;6.38;;;10.40;99.90;;;;;;5031250;28;20025;-54
2024/03/18 04:28:41;;;;;;;7.78;6.68;;;10.40;99.90;;;;;;5031447;28;20026;-48
2024/03/18 04:31:09;;;;;;;8.98;5.85;;;10.40;99.90;;;;;;5031340;28;20037;-53
2024/03/18 04:33:35;;;;;;;11.18;6.55;;;10.50;99.90;;;;;;5029874;28;20040;-53
2024/03/18 04:36:02;;;;;;;7.22;6.15;;;10.50;99.90;;;;;;5030342;28;20026;-50
2024/03/18 04:38:31;;;;;;;11.98;6.47;;;10.50;99.90;;;;;;5031277;28;20021;-47
2024/03/18 04:40:59;;;;;;;13.10;6.63;;;10.50;99.90;;;;;;5030975;28;20025;-53
2024/03/18 04:43:24;;;;;;;9.45;6.50;;;10.50;99.90;;;;;;5031173;28;20017;-55
2024/03/18 04:45:49;;;;;;;10.43;6.35;;;10.50;99.90;;;;;;5031228;28;20037;-52
2024/03/18 04:48:15;;;;;;;9.27;6.18;;;10.50;99.90;;;;;;5030727;28;20037;-47
2024/03/18 04:50:41;;;;;;;13.88;7.82;;;10.40;99.90;;;;;;5030925;28;20029;-50
2024/03/18 04:53:06;;;;;;;8.43;6.65;;;10.30;99.90;;;;;;5030996;28;20025;-52
2024/03/18 04:55:32;;;;;;;9.30;6.82;;;10.20;99.90;;;;;;5031028;28;20030;-50
2024/03/18 04:57:59;;;;;;;9.55;6.60;;;10.20;99.90;;;;;;5031127;28;20520;-48
2024/03/18 05:00:26;;;;;;;6.80;5.72;;;10.10;99.90;;;;;;5031039;28;20025;-54
2024/03/18 05:02:51;;;;;;;9.95;6.22;;;10.10;99.90;;;;;;5031030;28;20466;-52
2024/03/18 05:05:17;;;;;;;10.50;6.47;;;10.10;99.90;;;;;;5031141;28;20038;-55
2024/03/18 05:07:43;;;;;;;8.77;6.38;;;10.00;99.90;;;;;;5030741;28;20033;-49
2024/03/18 05:10:10;;;;;;;7.32;5.85;;;10.10;99.90;;;;;;5030748;28;20024;-50
2024/03/18 05:12:37;;;;;;;13.73;5.75;;;10.00;99.90;;;;;;5030874;28;20109;-52
2024/03/18 05:15:04;;;;;;;11.55;6.78;;;10.00;99.90;;;;;;5031063;28;20072;-47
2024/03/18 05:17:29;;;;;;;8.25;6.35;;;10.00;99.90;;;;;;5029561;28;20048;-52
2024/03/18 05:19:55;;;;;;;8.02;6.57;;;10.00;99.90;;;;;;5029568;28;20025;-49
2024/03/18 05:22:21;;;;;;;12.43;5.93;;;10.00;99.90;;;;;;5031229;28;20033;-48
2024/03/18 05:24:47;;;;;;;12.18;6.47;;;10.00;99.90;;;;;;5032979;28;20033;-49
2024/03/18 05:27:14;;;;;;;10.27;6.53;;;10.00;99.90;;;;;;5034861;28;20025;-48
2024/03/18 05:29:40;;;;;;;11.07;6.22;;;9.90;99.90;;;;;;5034252;28;20421;-46
2024/03/18 05:32:06;;;;;;;11.23;6.25;;;9.90;99.90;;;;;;5034341;28;20111;-48
2024/03/18 05:34:32;;;;;;;9.23;5.78;;;9.80;99.90;;;;;;5034294;28;20021;-50
2024/03/18 05:36:58;;;;;;;9.20;6.05;;;9.80;99.90;;;;;;5034268;28;20036;-50
2024/03/18 05:39:24;;;;;;;9.32;6.78;;;9.80;99.90;;;;;;5034133;28;20037;-50
2024/03/18 05:41:49;;;;;;;14.70;6.38;;;9.90;99.90;;;;;;5034499;28;20026;-49
2024/03/18 05:44:15;;;;;;;8.23;6.35;;;9.80;99.90;;;;;;5034170;28;20021;-49
2024/03/18 05:46:40;;;;;;;6.45;5.78;;;9.80;99.90;;;;;;5033707;28;20039;-53
2024/03/18 05:49:06;;;;;;;8.27;5.38;;;9.80;99.90;;;;;;5033959;28;20363;-49
2024/03/18 05:51:31;;;;;;;9.45;6.40;;;9.80;99.90;;;;;;5033935;28;20037;-49
2024/03/18 05:53:58;;;;;;;8.15;6.40;;;9.90;99.90;;;;;;5033736;28;20032;-53
2024/03/18 05:56:23;;;;;;;7.82;6.22;;;9.90;99.90;;;;;;5072449;22;20044;-52
2024/03/18 05:58:49;;;;;;;8.07;5.78;;;9.90;99.90;;;;;;5073639;28;20031;-48
2024/03/18 06:01:14;;;;;;;8.48;5.65;;;9.90;99.90;;;;;;5072058;28;20107;-46
2024/03/18 06:03:40;;;;;;;17.20;6.20;;;9.90;99.90;;;;;;5073449;28;20028;-51
2024/03/18 06:06:07;;;;;;;7.18;5.80;;;9.90;99.90;;;;;;5073787;28;20025;-50
2024/03/18 06:08:33;;;;;;;8.73;5.93;;;10.00;99.90;;;;;;5073468;28;20031;-46
2024/03/18 06:10:59;;;;;;;8.30;5.50;;;10.00;99.90;;;;;;5073281;28;20497;-49
2024/03/18 06:13:25;;;;;;;9.73;6.00;;;10.00;99.90;;;;;;5073241;28;20103;-46
2024/03/18 06:15:51;;;;;;;7.28;4.97;;;10.00;99.90;;;;;;5073221;28;20020;-48
2024/03/18 06:18:16;;;;;;;7.72;6.07;;;10.00;99.90;;;;;;5072008;28;20425;-49
2024/03/18 06:20:43;;;;;;;8.43;5.25;;;10.00;99.90;;;;;;5072977;28;20158;-48
2024/03/18 06:23:09;;;;;;;7.22;4.93;;;10.00;99.90;;;;;;5073179;28;20107;-46
2024/03/18 06:28:19;;;;;;;5.47;4.97;;;10.00;99.90;;;;;;5072952;28;20117;-48
2024/03/18 06:30:47;;;;;;;9.30;5.40;;;10.00;99.90;;;;;;5071671;28;20063;-48
2024/03/18 06:33:13;;;;;;;9.73;5.45;;;10.00;99.90;;;;;;5071750;28;20037;-46
2024/03/18 06:35:39;;;;;;;7.32;5.68;;;10.10;99.90;;;;;;5072928;28;20369;-50
2024/03/18 06:38:04;;;;;;;6.68;5.82;;;10.20;99.90;;;;;;5072863;28;20535;-48
2024/03/18 06:40:30;;;;;;;5.63;5.03;;;10.10;99.90;;;;;;5073240;28;20106;-47
2024/03/18 06:42:56;;;;;;;7.53;5.75;;;10.10;99.90;;;;;;5072660;28;20024;-51
2024/03/18 06:45:22;;;;;;;9.57;5.47;;;10.10;99.90;;;;;;5072795;28;20095;-48
2024/03/18 06:47:47;;;;;;;7.22;5.25;;;10.10;99.90;;;;;;5072372;28;20028;-46
2024/03/18 06:50:13;;;;;;;6.10;5.00;;;10.10;99.90;;;;;;5072443;28;20035;-50
2024/03/18 06:52:38;;;;;;;9.13;5.13;;;10.10;99.90;;;;;;5072421;28;20036;-46
2024/03/18 06:55:04;;;;;;;10.02;5.40;;;10.10;99.90;;;;;;5072582;28;20526;-47
2024/03/18 06:57:30;;;;;;;14.88;6.18;;;10.00;99.90;;;;;;5072564;28;20027;-47
2024/03/18 06:59:59;;;;;;;12.18;6.10;;;10.10;99.90;;;;;;5072218;28;20013;-52
2024/03/18 07:02:25;;;;;;;6.63;5.18;;;10.10;99.90;;;;;;5072329;28;20024;-46
2024/03/18 07:04:51;;;;;;;7.30;5.43;;;10.10;99.90;;;;;;5070958;28;20024;-51
2024/03/18 07:07:16;;;;;;;8.23;5.90;;;10.10;99.90;;;;;;5072456;28;20029;-45
2024/03/18 07:09:42;;;;;;;7.32;5.70;;;10.10;99.90;;;;;;5070824;28;20024;-47
2024/03/18 07:12:07;;;;;;;6.45;5.13;;;10.10;99.90;;;;;;5072228;28;20486;-46
2024/03/18 07:14:33;;;;;;;10.77;6.63;;;10.10;99.90;;;;;;5072303;28;20021;-48
2024/03/18 07:16:58;;;;;;;10.32;5.75;;;10.10;99.90;;;;;;5070837;28;20016;-47
2024/03/18 07:19:24;;;;;;;7.25;6.53;;;10.20;99.90;;;;;;5072089;28;20036;-51
2024/03/18 07:21:49;;;;;;;6.88;5.97;;;10.30;99.90;;;;;;5072048;28;20032;-49
2024/03/18 07:24:15;;;;;;;10.23;6.25;;;10.40;99.90;;;;;;5072180;28;20021;-47
2024/03/18 07:26:41;;;;;;;11.90;6.43;;;10.40;99.90;;;;;;5071780;28;20480;-48
2024/03/18 07:29:07;;;;;;;9.52;5.47;;;10.50;99.90;;;;;;5072107;28;20016;-51
2024/03/18 07:31:33;;;;;;;9.13;5.90;;;10.40;99.90;;;;;;5071852;28;20017;-50
2024/03/18 07:33:59;;;;;;;11.85;6.78;;;10.40;99.90;;;;;;5071704;28;20021;-49
2024/03/18 07:36:24;;;;;;;9.70;6.60;;;10.30;99.90;;;;;;5071610;28;20111;-52
2024/03/18 07:38:50;;;;;;;12.70;6.72;;;10.20;99.90;;;;;;5072437;28;20032;-51
2024/03/18 07:41:16;;;;;;;7.00;6.25;;;10.20;99.90;;;;;;5071668;28;20024;-51
2024/03/18 07:43:44;;;;;;;10.32;6.22;;;10.10;99.90;;;;;;5070429;28;20510;-49
2024/03/18 07:46:09;;;;;;;8.90;6.35;;;10.10;99.90;;;;;;5070959;28;20039;-49
2024/03/18 07:48:35;;;;;;;7.25;6.53;;;10.10;99.90;;;;;;5071280;28;20028;-52
2024/03/18 07:51:02;;;;;;;17.90;7.25;;;10.20;99.90;;;;;;5071609;28;20395;-51
2024/03/18 07:53:28;;;;;;;12.90;7.05;;;10.20;99.90;;;;;;5071553;28;20442;-50
2024/03/18 07:56:00;;;;;;;14.13;7.50;;;10.20;99.90;;;;;;5070130;28;20044;-48
2024/03/18 07:58:26;;;;;;;12.40;7.57;;;10.30;99.90;;;;;;5071491;28;20511;-49
2024/03/18 08:00:52;;;;;;;9.63;6.88;;;10.30;99.90;;;;;;5071301;28;20032;-50
2024/03/18 08:03:17;;;;;;;12.50;7.63;;;10.30;99.90;;;;;;5071721;28;20054;-51
2024/03/18 08:05:43;;;;;;;12.00;7.55;;;10.20;99.90;;;;;;5071190;28;20025;-50
2024/03/18 08:08:09;;;;;;;11.73;7.90;;;10.20;99.90;;;;;;5071467;28;20032;-48
2024/03/18 08:10:34;;;;;;;10.68;7.53;;;10.20;99.90;;;;;;5071208;28;20032;-48
2024/03/18 08:13:00;;;;;;;12.35;7.72;;;10.30;99.90;;;;;;5071299;28;20025;-52
2024/03/18 08:15:25;;;;;;;10.48;6.88;;;10.40;99.90;;;;;;5071484;28;20090;-47
2024/03/18 08:17:51;;;;;;;16.90;7.95;;;10.30;99.90;;;;;;5070141;28;20017;-49
2024/03/18 08:20:16;;;;;;;12.02;7.60;;;10.30;99.90;;;;;;5071183;28;20433;-48
2024/03/18 08:22:42;;;;;;;12.38;8.52;;;10.30;99.90;;;;;;5071627;28;20400;-52
2024/03/18 08:25:08;;;;;;;13.55;8.27;;;10.40;99.90;;;;;;5071421;28;20035;-52
2024/03/18 08:27:34;;;;;;;13.98;8.20;;;10.40;99.90;;;;;;5071206;28;20096;-49
2024/03/18 08:29:59;;;;;;;11.43;7.63;;;10.40;99.90;;;;;;5069894;28;20033;-48
2024/03/18 08:32:25;;;;;;;15.07;8.63;;;10.30;99.90;;;;;;5071103;28;20117;-52
2024/03/18 08:34:50;;;;;;;12.02;8.35;;;10.30;99.90;;;;;;5071953;28;20388;-49
2024/03/18 08:37:20;;;;;;;9.65;8.48;;;10.30;99.90;;;;;;5071741;28;20031;-47
2024/03/18 08:39:46;;;;;;;13.75;8.05;;;10.20;99.90;;;;;;5071110;28;20051;-48
2024/03/18 08:42:11;;;;;;;15.20;7.88;;;10.10;99.90;;;;;;5071102;28;20021;-52
2024/03/18 08:44:36;;;;;;;16.08;8.77;;;9.90;99.90;;;;;;5070881;28;20557;-48
2024/03/18 08:47:02;;;;;;;17.63;8.82;;;9.80;99.90;;;;;;5070716;28;20025;-49
2024/03/18 08:49:28;;;;;;;13.07;8.35;;;9.70;99.90;;;;;;5071050;28;20040;-48
2024/03/18 08:51:54;;;;;;;11.00;8.80;;;9.70;99.90;;;;;;5069632;28;20021;-51
2024/03/18 08:54:19;;;;;;;16.45;8.13;;;9.60;99.90;;;;;;5070938;28;20051;-51
2024/03/18 08:56:45;;;;;;;11.80;9.07;;;9.50;99.90;;;;;;5070802;28;20621;-49
2024/03/18 08:59:11;;;;;;;15.07;9.82;;;9.50;99.90;;;;;;5072292;28;20016;-46
2024/03/18 09:01:36;;;;;;;13.63;9.52;;;9.50;99.90;;;;;;5074717;28;20396;-47
2024/03/18 09:04:05;;;;;;;15.38;10.00;;;9.40;99.90;;;;;;5075075;28;20029;-49
2024/03/18 09:06:32;;;;;;;17.83;9.73;;;9.40;99.90;;;;;;5073259;28;20020;-50
2024/03/18 09:08:57;;;;;;;17.23;10.05;;;9.40;99.90;;;;;;5074814;28;20040;-48
2024/03/18 09:11:23;;;;;;;16.38;10.02;;;9.40;99.90;;;;;;5074398;28;20033;-49
2024/03/18 09:13:48;;;;;;;16.02;10.23;;;9.50;99.90;;;;;;5074462;28;20113;-50
2024/03/18 09:16:14;;;;;;;17.55;9.98;;;9.50;99.90;;;;;;5074431;28;20028;-55
2024/03/18 09:18:39;;;;;;;14.30;9.88;;;9.60;99.90;;;;;;5074324;28;20036;-49
2024/03/18 09:21:05;;;;;;;11.48;8.77;;;9.60;99.90;;;;;;5074850;28;20109;-47
2024/03/18 09:23:31;;;;;;;12.70;8.82;;;9.80;99.90;;;;;;5074342;28;20031;-52
2024/03/18 09:25:56;;;;;;;13.77;9.85;;;9.90;99.90;;;;;;5073170;28;20388;-56
2024/03/18 09:28:22;;;;;;;16.38;9.90;;;10.10;99.90;;;;;;5071939;28;20029;-50
2024/03/18 09:31:01;;;;;;;15.98;9.00;;;10.30;99.90;;;;;;5054119;28;20031;-50
2024/03/18 09:33:31;;;;;;;15.82;8.57;;;10.40;99.90;;;;;;5067361;28;20420;-48
2024/03/18 09:35:56;;;;;;;14.68;8.55;;;10.30;99.90;;;;;;5066012;28;20021;-49
2024/03/18 09:38:22;;;;;;;11.43;8.60;;;10.30;99.90;;;;;;5055553;28;20455;-55
2024/03/18 09:40:47;;;;;;;13.07;9.50;;;10.40;99.90;;;;;;5059607;28;20396;-55
2024/03/18 09:43:13;;;;;;;21.00;8.15;;;10.50;99.90;;;;;;5053923;28;20116;-57
2024/03/18 09:45:38;;;;;;;13.15;7.82;;;10.50;99.90;;;;;;5053781;28;20436;-52
2024/03/18 09:48:06;;;;;;;13.25;8.45;;;10.60;99.90;;;;;;5057564;28;20062;-52
2024/03/18 09:50:33;;;;;;;12.88;8.27;;;10.70;99.90;;;;;;5058298;28;20507;-53
2024/03/18 09:52:58;;;;;;;12.32;7.60;;;10.80;99.90;;;;;;5053973;28;20037;-51
2024/03/18 09:55:25;;;;;;;14.25;8.40;;;10.80;99.90;;;;;;5054185;28;20037;-53
2024/03/18 09:57:52;;;;;;;13.90;8.80;;;10.80;99.90;;;;;;5053616;28;20446;-53
2024/03/18 10:00:19;;;;;;;16.50;9.25;;;10.80;99.90;;;;;;5053723;28;20025;-48
2024/03/18 10:02:45;;;;;;;11.80;8.48;;;10.80;99.90;;;;;;5053653;28;20029;-51
2024/03/18 10:05:10;;;;;;;9.52;8.48;;;10.80;99.90;;;;;;5053477;28;20079;-49
2024/03/18 10:07:37;;;;;;;12.77;9.00;;;10.80;99.90;;;;;;5052076;28;20025;-52
2024/03/18 10:10:04;;;;;;;14.07;9.05;;;10.90;99.90;;;;;;5052949;28;20505;-50
2024/03/18 10:12:30;;;;;;;13.45;8.48;;;11.00;99.90;;;;;;5053358;28;20036;-49
2024/03/18 10:14:57;;;;;;;14.82;9.55;;;11.00;99.90;;;;;;5053403;28;20029;-50
2024/03/18 10:17:25;;;;;;;12.93;8.73;;;11.00;99.90;;;;;;5053301;28;20052;-50
2024/03/18 10:19:50;;;;;;;13.95;10.25;;;11.00;99.90;;;;;;5053066;28;20025;-52
2024/03/18 10:22:16;;;;;;;18.85;10.82;;;11.00;99.90;;;;;;5059948;28;20407;-49
2024/03/18 10:24:45;;;;;;;15.85;10.07;;;11.00;99.90;;;;;;5073098;28;20129;-50
2024/03/18 10:27:12;;;;;;;17.38;9.88;;;11.20;99.90;;;;;;5081733;28;20478;-49
2024/03/18 10:29:38;;;;;;;12.07;8.98;;;11.30;99.90;;;;;;5091818;28;20070;-50
2024/03/18 10:32:17;;;;;;;17.30;10.13;;;11.40;99.90;;;;;;5093376;28;20099;-49
2024/03/18 10:34:42;;;;;;;10.77;9.20;;;11.50;99.90;;;;;;5065656;28;20025;-51
2024/03/18 10:37:16;;;;;;;11.63;8.27;;;11.70;99.90;;;;;;5065757;28;20078;-51
2024/03/18 10:39:50;;;;;;;15.25;10.98;;;11.90;99.90;;;;;;5052593;28;20025;-53
2024/03/18 10:42:16;;;;;;;11.68;9.20;;;12.00;99.90;;;;;;5052920;28;20032;-54
2024/03/18 10:44:59;;;;;;;10.27;9.23;;;12.10;99.90;;;;;;5052657;28;20477;-55
2024/03/18 10:47:25;;;;;;;10.48;8.95;;;12.00;99.90;;;;;;5052723;28;20040;-52
2024/03/18 10:49:53;;;;;;;15.82;10.15;;;12.00;99.90;;;;;;5054029;28;20031;-51
2024/03/18 10:52:19;;;;;;;13.68;9.85;;;12.10;99.90;;;;;;5052599;28;20025;-51
2024/03/18 10:54:45;;;;;;;12.50;9.88;;;12.20;99.90;;;;;;5052608;28;20524;-52
2024/03/18 10:57:11;;;;;;;16.25;10.52;;;12.30;99.90;;;;;;5051343;28;20032;-51
2024/03/18 10:59:38;;;;;;;15.00;10.80;;;12.50;99.90;;;;;;5055904;28;20056;-52
2024/03/18 11:02:04;;;;;;;11.35;8.40;;;12.70;99.90;;;;;;5072322;28;20020;-52
2024/03/18 11:04:29;;;;;;;59.15;42.13;;;13.00;99.90;;;;;;5063436;28;20112;-50
2024/03/18 11:06:55;;;;;;;69.00;45.28;;;13.30;99.90;;;;;;5052289;28;20021;-52
2024/03/18 11:09:23;;;;;;;63.63;38.90;;;13.50;99.90;;;;;;5055435;28;20376;-54
2024/03/18 11:11:49;;;;;;;19.23;13.63;;;13.70;99.90;;;;;;5072312;28;20023;-55
2024/03/18 11:14:29;;;;;;;11.48;9.63;;;13.80;99.90;;;;;;5077419;28;20047;-56
2024/03/18 11:16:56;;;;;;;14.10;9.77;;;13.80;99.90;;;;;;5080304;28;20035;-53
2024/03/18 11:19:27;;;;;;;11.13;9.90;;;13.90;99.90;;;;;;5071624;28;20484;-57
2024/03/18 11:22:06;;;;;;;15.82;11.02;;;14.10;99.90;;;;;;5061501;28;20505;-49
2024/03/18 11:24:32;;;;;;;13.95;9.82;;;14.20;99.90;;;;;;5058678;28;20151;-52
2024/03/18 11:26:59;;;;;;;11.13;9.88;;;14.10;99.90;;;;;;5051441;28;20489;-54
2024/03/18 11:29:38;;;;;;;13.25;9.52;;;14.10;99.90;;;;;;5053170;28;20413;-57
2024/03/18 11:32:04;;;;;;;12.18;10.50;;;14.00;99.90;;;;;;5051890;28;20048;-53
2024/03/18 11:34:34;;;;;;;15.40;9.60;;;14.10;99.90;;;;;;5059367;28;20064;-50
2024/03/18 11:37:00;;;;;;;15.50;10.18;;;14.00;99.90;;;;;;5061196;28;20436;-52
2024/03/18 11:39:27;;;;;;;14.65;10.38;;;13.90;99.90;;;;;;5062076;28;20103;-52
2024/03/18 11:42:03;;;;;;;14.68;11.23;;;13.80;99.90;;;;;;5060487;28;20017;-54
2024/03/18 11:44:31;;;;;;;12.15;10.15;;;13.70;99.90;;;;;;5060190;28;20024;-54
2024/03/18 11:47:04;;;;;;;13.15;8.98;;;13.60;99.90;;;;;;5061180;28;20028;-55
2024/03/18 11:49:30;;;;;;;14.15;9.88;;;13.70;99.90;;;;;;5057545;28;20025;-54
2024/03/18 11:51:57;;;;;;;11.05;8.82;;;13.70;99.90;;;;;;5061145;28;20029;-54
2024/03/18 11:54:23;;;;;;;13.57;9.38;;;13.70;99.90;;;;;;5060068;28;20025;-56
2024/03/18 11:56:49;;;;;;;18.00;9.60;;;13.60;99.90;;;;;;5060499;28;20050;-55
2024/03/18 11:59:15;;;;;;;15.93;9.98;;;13.60;99.90;;;;;;5060749;28;20520;-54
2024/03/18 12:01:41;;;;;;;14.77;9.02;;;13.70;99.90;;;;;;5059499;28;20019;-58
2024/03/18 12:04:07;;;;;;;11.95;8.70;;;13.80;99.90;;;;;;5061944;28;20025;-54
2024/03/18 12:06:37;;;;;;;14.52;9.15;;;13.80;99.90;;;;;;5058110;28;20060;-59
2024/03/18 12:09:04;;;;;;;11.30;8.43;;;13.90;99.90;;;;;;5055445;28;20327;-59
2024/03/18 12:11:30;;;;;;;9.60;8.57;;;14.00;99.90;;;;;;5049640;28;20545;-60
2024/03/18 12:13:56;;;;;;;16.23;9.18;;;14.10;99.90;;;;;;5050416;28;20028;-57
2024/03/18 12:16:21;;;;;;;76.72;50.53;;;14.20;99.90;;;;;;5049853;28;20484;-61
2024/03/18 12:18:47;;;;;;;14.13;11.45;;;14.40;99.90;;;;;;5050446;28;20495;-58
2024/03/18 12:21:13;;;;;;;22.23;15.75;;;14.40;99.90;;;;;;5051124;28;20106;-59
2024/03/18 12:29:07;;;;;;;12.60;7.03;;;14.70;99.90;;;;;;5070830;28;20416;-56
2024/03/18 12:31:39;;;;;;;8.35;7.25;;;14.70;99.90;;;;;;5070924;28;20032;-60
2024/03/18 12:34:05;;;;;;;12.43;8.70;;;14.60;99.90;;;;;;5073692;28;20545;-59
2024/03/18 12:36:34;;;;;;;13.80;8.43;;;14.80;99.90;;;;;;5074903;28;20025;-59
2024/03/18 12:39:08;;;;;;;11.82;7.93;;;14.80;99.90;;;;;;5073118;28;20028;-58
2024/03/18 12:41:37;;;;;;;9.20;8.18;;;14.80;99.90;;;;;;5075137;28;20044;-58
2024/03/18 12:44:02;;;;;;;13.32;7.85;;;14.90;99.90;;;;;;5071474;28;20040;-59